sensor_id;sensor_type;location;lat;lon;timestamp;P1;durP1;ratioP1;P2;durP2;ratioP2
68050;SDS011;54839;51.364;7.246;2023-07-31T00:00:47;14.10;;;4.70;;
68050;SDS011;54839;51.364;7.246;2023-07-31T00:03:13;6.23;;;3.23;;
68050;SDS011;54839;51.364;7.246;2023-07-31T00:05:38;7.47;;;4.10;;
68050;SDS011;54839;51.364;7.246;2023-07-31T00:08:04;4.47;;;2.73;;
68050;SDS011;54839;51.364;7.246;2023-07-31T00:10:32;5.50;;;4.40;;
68050;SDS011;54839;51.364;7.246;2023-07-31T00:12:58;8.57;;;4.83;;
68050;SDS011;54839;51.364;7.246;2023-07-31T00:15:24;7.10;;;4.20;;
68050;SDS011;54839;51.364;7.246;2023-07-31T00:17:50;10.43;;;4.17;;
68050;SDS011;54839;51.364;7.246;2023-07-31T00:20:15;18.73;;;3.87;;
68050;SDS011;54839;51.364;7.246;2023-07-31T00:22:41;5.50;;;3.43;;
68050;SDS011;54839;51.364;7.246;2023-07-31T00:25:07;7.43;;;4.20;;
68050;SDS011;54839;51.364;7.246;2023-07-31T00:27:32;5.47;;;4.20;;
68050;SDS011;54839;51.364;7.246;2023-07-31T00:29:58;6.80;;;4.30;;
68050;SDS011;54839;51.364;7.246;2023-07-31T00:32:24;7.13;;;4.37;;
68050;SDS011;54839;51.364;7.246;2023-07-31T00:34:50;4.93;;;3.00;;
68050;SDS011;54839;51.364;7.246;2023-07-31T00:37:15;9.87;;;4.03;;
68050;SDS011;54839;51.364;7.246;2023-07-31T00:39:41;12.80;;;6.93;;
68050;SDS011;54839;51.364;7.246;2023-07-31T00:42:07;8.53;;;4.00;;
68050;SDS011;54839;51.364;7.246;2023-07-31T00:44:33;10.77;;;4.73;;
68050;SDS011;54839;51.364;7.246;2023-07-31T00:46:58;7.77;;;4.53;;
68050;SDS011;54839;51.364;7.246;2023-07-31T00:49:24;9.50;;;4.70;;
68050;SDS011;54839;51.364;7.246;2023-07-31T00:51:51;8.47;;;4.47;;
68050;SDS011;54839;51.364;7.246;2023-07-31T00:54:17;6.50;;;3.97;;
68050;SDS011;54839;51.364;7.246;2023-07-31T00:56:44;8.13;;;4.43;;
68050;SDS011;54839;51.364;7.246;2023-07-31T00:59:11;7.20;;;3.70;;
68050;SDS011;54839;51.364;7.246;2023-07-31T01:01:37;10.23;;;5.83;;
68050;SDS011;54839;51.364;7.246;2023-07-31T01:04:03;9.30;;;4.83;;
68050;SDS011;54839;51.364;7.246;2023-07-31T01:09:44;10.63;;;4.57;;
68050;SDS011;54839;51.364;7.246;2023-07-31T01:12:17;10.00;;;5.60;;
68050;SDS011;54839;51.364;7.246;2023-07-31T01:15:03;8.70;;;3.53;;
68050;SDS011;54839;51.364;7.246;2023-07-31T01:17:30;8.67;;;4.17;;
68050;SDS011;54839;51.364;7.246;2023-07-31T01:19:55;13.23;;;4.77;;
68050;SDS011;54839;51.364;7.246;2023-07-31T01:25:24;10.53;;;4.60;;
68050;SDS011;54839;51.364;7.246;2023-07-31T01:27:59;10.30;;;4.70;;
68050;SDS011;54839;51.364;7.246;2023-07-31T01:30:30;8.67;;;4.20;;
68050;SDS011;54839;51.364;7.246;2023-07-31T01:33:02;13.20;;;3.37;;
68050;SDS011;54839;51.364;7.246;2023-07-31T01:35:34;10.77;;;5.07;;
68050;SDS011;54839;51.364;7.246;2023-07-31T01:38:01;6.70;;;4.03;;
68050;SDS011;54839;51.364;7.246;2023-07-31T01:40:26;6.10;;;4.03;;
68050;SDS011;54839;51.364;7.246;2023-07-31T01:42:52;9.00;;;4.90;;
68050;SDS011;54839;51.364;7.246;2023-07-31T01:45:18;11.27;;;4.73;;
68050;SDS011;54839;51.364;7.246;2023-07-31T01:47:43;8.73;;;4.30;;
68050;SDS011;54839;51.364;7.246;2023-07-31T01:50:09;7.17;;;4.23;;
68050;SDS011;54839;51.364;7.246;2023-07-31T01:52:35;9.43;;;4.53;;
68050;SDS011;54839;51.364;7.246;2023-07-31T01:55:00;8.13;;;4.47;;
68050;SDS011;54839;51.364;7.246;2023-07-31T01:57:26;6.00;;;3.23;;
68050;SDS011;54839;51.364;7.246;2023-07-31T01:59:51;9.43;;;4.47;;
68050;SDS011;54839;51.364;7.246;2023-07-31T02:02:18;7.40;;;4.33;;
68050;SDS011;54839;51.364;7.246;2023-07-31T02:04:44;7.67;;;4.23;;
68050;SDS011;54839;51.364;7.246;2023-07-31T02:07:10;4.40;;;4.00;;
68050;SDS011;54839;51.364;7.246;2023-07-31T02:09:36;9.43;;;4.80;;
68050;SDS011;54839;51.364;7.246;2023-07-31T02:12:01;5.23;;;3.03;;
68050;SDS011;54839;51.364;7.246;2023-07-31T02:14:27;7.40;;;4.97;;
68050;SDS011;54839;51.364;7.246;2023-07-31T02:16:53;8.03;;;3.50;;
68050;SDS011;54839;51.364;7.246;2023-07-31T02:19:18;11.33;;;5.00;;
68050;SDS011;54839;51.364;7.246;2023-07-31T02:21:44;11.37;;;5.50;;
68050;SDS011;54839;51.364;7.246;2023-07-31T02:24:09;10.37;;;4.97;;
68050;SDS011;54839;51.364;7.246;2023-07-31T02:26:35;7.90;;;3.87;;
68050;SDS011;54839;51.364;7.246;2023-07-31T02:29:01;11.40;;;4.70;;
68050;SDS011;54839;51.364;7.246;2023-07-31T02:31:26;8.47;;;4.60;;
68050;SDS011;54839;51.364;7.246;2023-07-31T02:33:52;9.83;;;4.93;;
68050;SDS011;54839;51.364;7.246;2023-07-31T02:36:18;6.30;;;4.43;;
68050;SDS011;54839;51.364;7.246;2023-07-31T02:38:44;7.97;;;4.87;;
68050;SDS011;54839;51.364;7.246;2023-07-31T02:41:09;9.13;;;4.97;;
68050;SDS011;54839;51.364;7.246;2023-07-31T02:43:35;7.97;;;4.20;;
68050;SDS011;54839;51.364;7.246;2023-07-31T02:46:01;10.40;;;4.60;;
68050;SDS011;54839;51.364;7.246;2023-07-31T02:48:26;9.00;;;4.87;;
68050;SDS011;54839;51.364;7.246;2023-07-31T02:50:53;11.23;;;4.40;;
68050;SDS011;54839;51.364;7.246;2023-07-31T02:53:18;8.43;;;3.80;;
68050;SDS011;54839;51.364;7.246;2023-07-31T02:55:44;6.97;;;3.90;;
68050;SDS011;54839;51.364;7.246;2023-07-31T02:58:10;16.23;;;5.50;;
68050;SDS011;54839;51.364;7.246;2023-07-31T03:00:35;12.70;;;4.67;;
68050;SDS011;54839;51.364;7.246;2023-07-31T03:03:01;7.93;;;3.50;;
68050;SDS011;54839;51.364;7.246;2023-07-31T03:05:26;10.67;;;4.00;;
68050;SDS011;54839;51.364;7.246;2023-07-31T03:07:52;8.60;;;3.80;;
68050;SDS011;54839;51.364;7.246;2023-07-31T03:10:18;9.00;;;4.00;;
68050;SDS011;54839;51.364;7.246;2023-07-31T03:12:46;15.97;;;6.13;;
68050;SDS011;54839;51.364;7.246;2023-07-31T03:15:13;13.90;;;5.10;;
68050;SDS011;54839;51.364;7.246;2023-07-31T03:17:38;11.90;;;4.37;;
68050;SDS011;54839;51.364;7.246;2023-07-31T03:20:04;8.80;;;5.03;;
68050;SDS011;54839;51.364;7.246;2023-07-31T03:22:30;8.30;;;4.00;;
68050;SDS011;54839;51.364;7.246;2023-07-31T03:24:56;9.07;;;4.13;;
68050;SDS011;54839;51.364;7.246;2023-07-31T03:27:21;8.93;;;3.90;;
68050;SDS011;54839;51.364;7.246;2023-07-31T03:29:47;9.77;;;4.30;;
68050;SDS011;54839;51.364;7.246;2023-07-31T03:32:14;12.63;;;4.37;;
68050;SDS011;54839;51.364;7.246;2023-07-31T03:34:40;5.53;;;3.37;;
68050;SDS011;54839;51.364;7.246;2023-07-31T03:37:06;6.90;;;4.83;;
68050;SDS011;54839;51.364;7.246;2023-07-31T03:39:31;5.03;;;3.77;;
68050;SDS011;54839;51.364;7.246;2023-07-31T03:41:57;5.87;;;3.50;;
68050;SDS011;54839;51.364;7.246;2023-07-31T03:44:22;10.80;;;3.80;;
68050;SDS011;54839;51.364;7.246;2023-07-31T03:46:48;11.63;;;4.23;;
68050;SDS011;54839;51.364;7.246;2023-07-31T03:49:13;9.87;;;4.83;;
68050;SDS011;54839;51.364;7.246;2023-07-31T03:51:39;7.33;;;4.67;;
68050;SDS011;54839;51.364;7.246;2023-07-31T03:54:05;7.80;;;4.70;;
68050;SDS011;54839;51.364;7.246;2023-07-31T03:56:32;8.43;;;3.70;;
68050;SDS011;54839;51.364;7.246;2023-07-31T03:58:58;8.87;;;5.33;;
68050;SDS011;54839;51.364;7.246;2023-07-31T04:01:24;11.47;;;4.53;;
68050;SDS011;54839;51.364;7.246;2023-07-31T04:03:49;10.10;;;5.33;;
68050;SDS011;54839;51.364;7.246;2023-07-31T04:06:15;10.63;;;4.57;;
68050;SDS011;54839;51.364;7.246;2023-07-31T04:08:43;8.23;;;4.67;;
68050;SDS011;54839;51.364;7.246;2023-07-31T04:11:10;7.07;;;4.67;;
68050;SDS011;54839;51.364;7.246;2023-07-31T04:13:36;9.20;;;4.43;;
68050;SDS011;54839;51.364;7.246;2023-07-31T04:16:02;8.50;;;4.83;;
68050;SDS011;54839;51.364;7.246;2023-07-31T04:18:28;9.63;;;4.80;;
68050;SDS011;54839;51.364;7.246;2023-07-31T04:20:55;8.23;;;4.73;;
68050;SDS011;54839;51.364;7.246;2023-07-31T04:23:23;9.10;;;5.07;;
68050;SDS011;54839;51.364;7.246;2023-07-31T04:25:51;7.73;;;4.97;;
68050;SDS011;54839;51.364;7.246;2023-07-31T04:28:16;10.57;;;5.20;;
68050;SDS011;54839;51.364;7.246;2023-07-31T04:30:42;11.93;;;4.60;;
68050;SDS011;54839;51.364;7.246;2023-07-31T04:33:08;9.87;;;4.70;;
68050;SDS011;54839;51.364;7.246;2023-07-31T04:35:34;5.63;;;5.00;;
68050;SDS011;54839;51.364;7.246;2023-07-31T04:37:59;7.57;;;4.90;;
68050;SDS011;54839;51.364;7.246;2023-07-31T04:40:25;10.20;;;4.60;;
68050;SDS011;54839;51.364;7.246;2023-07-31T04:42:50;10.20;;;4.77;;
68050;SDS011;54839;51.364;7.246;2023-07-31T04:45:16;11.20;;;4.80;;
68050;SDS011;54839;51.364;7.246;2023-07-31T04:47:42;12.97;;;4.80;;
68050;SDS011;54839;51.364;7.246;2023-07-31T04:50:07;7.57;;;4.33;;
68050;SDS011;54839;51.364;7.246;2023-07-31T04:52:33;9.00;;;5.67;;
68050;SDS011;54839;51.364;7.246;2023-07-31T04:54:59;8.33;;;5.07;;
68050;SDS011;54839;51.364;7.246;2023-07-31T04:57:25;7.13;;;4.33;;
68050;SDS011;54839;51.364;7.246;2023-07-31T04:59:50;6.50;;;4.80;;
68050;SDS011;54839;51.364;7.246;2023-07-31T05:02:16;7.23;;;4.17;;
68050;SDS011;54839;51.364;7.246;2023-07-31T05:04:41;9.00;;;5.40;;
68050;SDS011;54839;51.364;7.246;2023-07-31T05:07:07;10.50;;;4.40;;
68050;SDS011;54839;51.364;7.246;2023-07-31T05:09:33;9.00;;;5.23;;
68050;SDS011;54839;51.364;7.246;2023-07-31T05:11:58;13.57;;;4.90;;
68050;SDS011;54839;51.364;7.246;2023-07-31T05:14:25;11.80;;;6.53;;
68050;SDS011;54839;51.364;7.246;2023-07-31T05:16:51;10.63;;;5.73;;
68050;SDS011;54839;51.364;7.246;2023-07-31T05:19:17;7.90;;;4.40;;
68050;SDS011;54839;51.364;7.246;2023-07-31T05:21:42;9.60;;;5.27;;
68050;SDS011;54839;51.364;7.246;2023-07-31T05:24:08;6.80;;;5.27;;
68050;SDS011;54839;51.364;7.246;2023-07-31T05:26:34;10.90;;;5.07;;
68050;SDS011;54839;51.364;7.246;2023-07-31T05:29:00;9.83;;;5.63;;
68050;SDS011;54839;51.364;7.246;2023-07-31T05:31:26;8.40;;;4.83;;
68050;SDS011;54839;51.364;7.246;2023-07-31T05:33:51;7.87;;;4.43;;
68050;SDS011;54839;51.364;7.246;2023-07-31T05:36:17;8.23;;;4.60;;
68050;SDS011;54839;51.364;7.246;2023-07-31T05:38:43;9.20;;;5.90;;
68050;SDS011;54839;51.364;7.246;2023-07-31T05:41:11;8.60;;;5.17;;
68050;SDS011;54839;51.364;7.246;2023-07-31T05:43:37;8.30;;;4.40;;
68050;SDS011;54839;51.364;7.246;2023-07-31T05:46:03;17.80;;;5.60;;
68050;SDS011;54839;51.364;7.246;2023-07-31T05:48:29;10.13;;;5.20;;
68050;SDS011;54839;51.364;7.246;2023-07-31T05:50:54;10.27;;;5.63;;
68050;SDS011;54839;51.364;7.246;2023-07-31T05:53:20;10.87;;;5.70;;
68050;SDS011;54839;51.364;7.246;2023-07-31T05:55:46;7.67;;;5.17;;
68050;SDS011;54839;51.364;7.246;2023-07-31T05:58:11;6.13;;;4.60;;
68050;SDS011;54839;51.364;7.246;2023-07-31T06:00:37;9.13;;;5.93;;
68050;SDS011;54839;51.364;7.246;2023-07-31T06:03:02;12.87;;;5.47;;
68050;SDS011;54839;51.364;7.246;2023-07-31T06:05:29;7.87;;;4.90;;
68050;SDS011;54839;51.364;7.246;2023-07-31T06:07:55;8.70;;;5.20;;
68050;SDS011;54839;51.364;7.246;2023-07-31T06:10:21;7.13;;;5.33;;
68050;SDS011;54839;51.364;7.246;2023-07-31T06:12:46;10.73;;;5.33;;
68050;SDS011;54839;51.364;7.246;2023-07-31T06:15:12;9.57;;;5.90;;
68050;SDS011;54839;51.364;7.246;2023-07-31T06:17:38;8.23;;;5.37;;
68050;SDS011;54839;51.364;7.246;2023-07-31T06:20:03;10.87;;;5.50;;
68050;SDS011;54839;51.364;7.246;2023-07-31T06:22:31;9.63;;;4.57;;
68050;SDS011;54839;51.364;7.246;2023-07-31T06:24:57;8.83;;;5.47;;
68050;SDS011;54839;51.364;7.246;2023-07-31T06:27:23;15.67;;;5.80;;
68050;SDS011;54839;51.364;7.246;2023-07-31T06:29:48;7.53;;;6.13;;
68050;SDS011;54839;51.364;7.246;2023-07-31T06:32:14;8.93;;;4.97;;
68050;SDS011;54839;51.364;7.246;2023-07-31T06:34:40;8.87;;;5.17;;
68050;SDS011;54839;51.364;7.246;2023-07-31T06:37:05;10.30;;;5.30;;
68050;SDS011;54839;51.364;7.246;2023-07-31T06:39:31;9.30;;;4.60;;
68050;SDS011;54839;51.364;7.246;2023-07-31T06:41:57;8.63;;;4.73;;
68050;SDS011;54839;51.364;7.246;2023-07-31T06:44:22;8.90;;;5.63;;
68050;SDS011;54839;51.364;7.246;2023-07-31T06:46:48;8.60;;;4.87;;
68050;SDS011;54839;51.364;7.246;2023-07-31T06:49:14;7.83;;;4.97;;
68050;SDS011;54839;51.364;7.246;2023-07-31T06:51:42;10.63;;;5.40;;
68050;SDS011;54839;51.364;7.246;2023-07-31T06:54:09;8.00;;;6.83;;
68050;SDS011;54839;51.364;7.246;2023-07-31T06:56:34;8.07;;;5.63;;
68050;SDS011;54839;51.364;7.246;2023-07-31T06:59:00;8.33;;;4.77;;
68050;SDS011;54839;51.364;7.246;2023-07-31T07:01:26;7.10;;;4.20;;
68050;SDS011;54839;51.364;7.246;2023-07-31T07:03:53;8.00;;;5.30;;
68050;SDS011;54839;51.364;7.246;2023-07-31T07:06:19;7.00;;;4.47;;
68050;SDS011;54839;51.364;7.246;2023-07-31T07:08:45;6.47;;;5.30;;
68050;SDS011;54839;51.364;7.246;2023-07-31T07:11:10;7.10;;;4.67;;
68050;SDS011;54839;51.364;7.246;2023-07-31T07:13:36;6.83;;;4.00;;
68050;SDS011;54839;51.364;7.246;2023-07-31T07:16:02;7.90;;;5.00;;
68050;SDS011;54839;51.364;7.246;2023-07-31T07:18:27;12.23;;;4.53;;
68050;SDS011;54839;51.364;7.246;2023-07-31T07:20:53;6.87;;;4.27;;
68050;SDS011;54839;51.364;7.246;2023-07-31T07:23:19;8.20;;;4.23;;
68050;SDS011;54839;51.364;7.246;2023-07-31T07:25:45;5.30;;;4.00;;
68050;SDS011;54839;51.364;7.246;2023-07-31T07:28:12;12.00;;;4.40;;
68050;SDS011;54839;51.364;7.246;2023-07-31T07:30:38;9.03;;;5.40;;
68050;SDS011;54839;51.364;7.246;2023-07-31T07:33:03;9.73;;;4.93;;
68050;SDS011;54839;51.364;7.246;2023-07-31T07:35:29;7.53;;;4.70;;
68050;SDS011;54839;51.364;7.246;2023-07-31T07:37:55;8.97;;;5.60;;
68050;SDS011;54839;51.364;7.246;2023-07-31T07:40:21;7.93;;;3.73;;
68050;SDS011;54839;51.364;7.246;2023-07-31T07:42:47;7.30;;;4.53;;
68050;SDS011;54839;51.364;7.246;2023-07-31T07:45:12;6.73;;;4.23;;
68050;SDS011;54839;51.364;7.246;2023-07-31T07:47:40;6.93;;;4.80;;
68050;SDS011;54839;51.364;7.246;2023-07-31T07:50:06;6.60;;;4.40;;
68050;SDS011;54839;51.364;7.246;2023-07-31T07:52:32;7.13;;;4.20;;
68050;SDS011;54839;51.364;7.246;2023-07-31T07:54:58;5.47;;;4.50;;
68050;SDS011;54839;51.364;7.246;2023-07-31T07:57:25;8.00;;;4.73;;
68050;SDS011;54839;51.364;7.246;2023-07-31T07:59:51;6.60;;;3.83;;
68050;SDS011;54839;51.364;7.246;2023-07-31T08:02:17;10.27;;;4.80;;
68050;SDS011;54839;51.364;7.246;2023-07-31T08:04:42;6.77;;;3.90;;
68050;SDS011;54839;51.364;7.246;2023-07-31T08:07:10;10.70;;;5.57;;
68050;SDS011;54839;51.364;7.246;2023-07-31T08:09:37;6.53;;;4.03;;
68050;SDS011;54839;51.364;7.246;2023-07-31T08:12:03;9.83;;;5.37;;
68050;SDS011;54839;51.364;7.246;2023-07-31T08:14:29;7.10;;;3.70;;
68050;SDS011;54839;51.364;7.246;2023-07-31T08:16:55;7.07;;;4.40;;
68050;SDS011;54839;51.364;7.246;2023-07-31T08:19:21;3.97;;;3.50;;
68050;SDS011;54839;51.364;7.246;2023-07-31T08:21:50;7.90;;;3.97;;
68050;SDS011;54839;51.364;7.246;2023-07-31T08:24:15;4.27;;;2.47;;
68050;SDS011;54839;51.364;7.246;2023-07-31T08:26:41;7.10;;;3.77;;
68050;SDS011;54839;51.364;7.246;2023-07-31T08:29:07;3.37;;;2.90;;
68050;SDS011;54839;51.364;7.246;2023-07-31T08:31:33;4.47;;;3.37;;
68050;SDS011;54839;51.364;7.246;2023-07-31T08:33:59;5.43;;;3.07;;
68050;SDS011;54839;51.364;7.246;2023-07-31T08:36:25;6.33;;;3.20;;
68050;SDS011;54839;51.364;7.246;2023-07-31T08:38:51;3.50;;;2.83;;
68050;SDS011;54839;51.364;7.246;2023-07-31T08:41:17;4.33;;;2.60;;
68050;SDS011;54839;51.364;7.246;2023-07-31T08:43:42;4.87;;;2.70;;
68050;SDS011;54839;51.364;7.246;2023-07-31T08:46:10;2.80;;;2.50;;
68050;SDS011;54839;51.364;7.246;2023-07-31T08:48:37;4.43;;;3.30;;
68050;SDS011;54839;51.364;7.246;2023-07-31T08:51:05;5.20;;;3.60;;
68050;SDS011;54839;51.364;7.246;2023-07-31T08:53:32;6.30;;;3.60;;
68050;SDS011;54839;51.364;7.246;2023-07-31T08:55:58;7.83;;;2.70;;
68050;SDS011;54839;51.364;7.246;2023-07-31T08:58:24;5.60;;;3.63;;
68050;SDS011;54839;51.364;7.246;2023-07-31T09:00:52;5.33;;;2.83;;
68050;SDS011;54839;51.364;7.246;2023-07-31T09:03:19;4.47;;;3.30;;
68050;SDS011;54839;51.364;7.246;2023-07-31T09:05:48;5.77;;;3.40;;
68050;SDS011;54839;51.364;7.246;2023-07-31T09:08:18;4.07;;;3.33;;
68050;SDS011;54839;51.364;7.246;2023-07-31T09:10:45;6.50;;;3.80;;
68050;SDS011;54839;51.364;7.246;2023-07-31T09:13:12;5.63;;;4.37;;
68050;SDS011;54839;51.364;7.246;2023-07-31T09:15:38;6.10;;;3.60;;
68050;SDS011;54839;51.364;7.246;2023-07-31T09:18:07;5.77;;;2.80;;
68050;SDS011;54839;51.364;7.246;2023-07-31T09:20:33;4.47;;;2.80;;
68050;SDS011;54839;51.364;7.246;2023-07-31T09:23:10;4.73;;;3.47;;
68050;SDS011;54839;51.364;7.246;2023-07-31T09:25:39;5.23;;;3.63;;
68050;SDS011;54839;51.364;7.246;2023-07-31T09:28:08;4.60;;;3.73;;
68050;SDS011;54839;51.364;7.246;2023-07-31T09:30:47;3.93;;;3.07;;
68050;SDS011;54839;51.364;7.246;2023-07-31T09:33:17;4.63;;;3.50;;
68050;SDS011;54839;51.364;7.246;2023-07-31T09:35:44;5.73;;;3.53;;
68050;SDS011;54839;51.364;7.246;2023-07-31T09:38:10;3.10;;;2.23;;
68050;SDS011;54839;51.364;7.246;2023-07-31T09:40:40;2.33;;;2.10;;
68050;SDS011;54839;51.364;7.246;2023-07-31T09:43:08;3.23;;;2.37;;
68050;SDS011;54839;51.364;7.246;2023-07-31T09:45:44;4.33;;;3.60;;
68050;SDS011;54839;51.364;7.246;2023-07-31T09:48:14;2.77;;;2.27;;
68050;SDS011;54839;51.364;7.246;2023-07-31T09:50:42;3.50;;;3.20;;
68050;SDS011;54839;51.364;7.246;2023-07-31T09:53:09;6.33;;;3.00;;
68050;SDS011;54839;51.364;7.246;2023-07-31T09:55:35;6.23;;;5.63;;
68050;SDS011;54839;51.364;7.246;2023-07-31T09:58:06;2.73;;;2.40;;
68050;SDS011;54839;51.364;7.246;2023-07-31T10:00:33;4.30;;;2.53;;
68050;SDS011;54839;51.364;7.246;2023-07-31T10:03:00;2.30;;;1.87;;
68050;SDS011;54839;51.364;7.246;2023-07-31T10:05:46;3.77;;;2.93;;
68050;SDS011;54839;51.364;7.246;2023-07-31T10:08:18;3.13;;;2.30;;
68050;SDS011;54839;51.364;7.246;2023-07-31T10:10:49;2.97;;;2.40;;
68050;SDS011;54839;51.364;7.246;2023-07-31T10:13:15;1.93;;;1.73;;
68050;SDS011;54839;51.364;7.246;2023-07-31T10:15:42;2.30;;;2.10;;
68050;SDS011;54839;51.364;7.246;2023-07-31T10:18:08;2.53;;;1.97;;
68050;SDS011;54839;51.364;7.246;2023-07-31T10:20:35;2.23;;;2.03;;
68050;SDS011;54839;51.364;7.246;2023-07-31T10:23:02;2.10;;;1.90;;
68050;SDS011;54839;51.364;7.246;2023-07-31T10:25:28;2.30;;;2.10;;
68050;SDS011;54839;51.364;7.246;2023-07-31T10:27:54;2.00;;;1.80;;
68050;SDS011;54839;51.364;7.246;2023-07-31T10:30:22;2.07;;;1.97;;
68050;SDS011;54839;51.364;7.246;2023-07-31T10:32:59;2.07;;;1.80;;
68050;SDS011;54839;51.364;7.246;2023-07-31T10:35:26;2.20;;;1.90;;
68050;SDS011;54839;51.364;7.246;2023-07-31T10:37:52;2.50;;;2.30;;
68050;SDS011;54839;51.364;7.246;2023-07-31T10:40:19;2.00;;;1.70;;
68050;SDS011;54839;51.364;7.246;2023-07-31T10:42:51;3.30;;;2.67;;
68050;SDS011;54839;51.364;7.246;2023-07-31T10:48:02;2.30;;;1.53;;
68050;SDS011;54839;51.364;7.246;2023-07-31T10:50:29;6.50;;;1.70;;
68050;SDS011;54839;51.364;7.246;2023-07-31T10:52:57;3.73;;;1.97;;
68050;SDS011;54839;51.364;7.246;2023-07-31T10:57:54;4.10;;;2.43;;
68050;SDS011;54839;51.364;7.246;2023-07-31T11:00:30;2.83;;;2.40;;
68050;SDS011;54839;51.364;7.246;2023-07-31T11:02:56;3.00;;;2.47;;
68050;SDS011;54839;51.364;7.246;2023-07-31T11:08:17;4.57;;;3.30;;
68050;SDS011;54839;51.364;7.246;2023-07-31T11:13:32;4.90;;;3.60;;
68050;SDS011;54839;51.364;7.246;2023-07-31T11:15:59;5.07;;;3.10;;
68050;SDS011;54839;51.364;7.246;2023-07-31T11:18:28;5.93;;;4.03;;
68050;SDS011;54839;51.364;7.246;2023-07-31T11:20:54;4.90;;;3.20;;
68050;SDS011;54839;51.364;7.246;2023-07-31T11:23:20;6.57;;;3.63;;
68050;SDS011;54839;51.364;7.246;2023-07-31T11:25:46;6.70;;;4.30;;
68050;SDS011;54839;51.364;7.246;2023-07-31T11:28:13;4.47;;;3.50;;
68050;SDS011;54839;51.364;7.246;2023-07-31T11:30:39;4.70;;;3.50;;
68050;SDS011;54839;51.364;7.246;2023-07-31T11:33:07;6.60;;;3.30;;
68050;SDS011;54839;51.364;7.246;2023-07-31T11:35:35;5.07;;;3.93;;
68050;SDS011;54839;51.364;7.246;2023-07-31T11:38:11;8.63;;;4.03;;
68050;SDS011;54839;51.364;7.246;2023-07-31T11:40:43;9.80;;;3.43;;
68050;SDS011;54839;51.364;7.246;2023-07-31T11:43:09;7.97;;;4.83;;
68050;SDS011;54839;51.364;7.246;2023-07-31T11:45:38;5.23;;;3.43;;
68050;SDS011;54839;51.364;7.246;2023-07-31T11:48:05;3.10;;;2.40;;
68050;SDS011;54839;51.364;7.246;2023-07-31T11:50:33;4.03;;;3.10;;
68050;SDS011;54839;51.364;7.246;2023-07-31T11:53:02;3.33;;;2.60;;
68050;SDS011;54839;51.364;7.246;2023-07-31T11:55:32;4.40;;;2.87;;
68050;SDS011;54839;51.364;7.246;2023-07-31T11:57:58;4.43;;;2.87;;
68050;SDS011;54839;51.364;7.246;2023-07-31T12:00:25;4.10;;;3.13;;
68050;SDS011;54839;51.364;7.246;2023-07-31T12:02:52;3.40;;;2.67;;
68050;SDS011;54839;51.364;7.246;2023-07-31T12:05:18;3.23;;;2.50;;
68050;SDS011;54839;51.364;7.246;2023-07-31T12:07:45;4.13;;;2.37;;
68050;SDS011;54839;51.364;7.246;2023-07-31T12:10:28;4.90;;;3.00;;
68050;SDS011;54839;51.364;7.246;2023-07-31T12:12:55;7.77;;;3.33;;
68050;SDS011;54839;51.364;7.246;2023-07-31T12:15:29;3.67;;;2.43;;
68050;SDS011;54839;51.364;7.246;2023-07-31T12:18:08;4.23;;;2.20;;
68050;SDS011;54839;51.364;7.246;2023-07-31T12:20:43;3.33;;;1.87;;
68050;SDS011;54839;51.364;7.246;2023-07-31T12:23:14;2.73;;;2.00;;
68050;SDS011;54839;51.364;7.246;2023-07-31T12:25:40;3.20;;;2.23;;
68050;SDS011;54839;51.364;7.246;2023-07-31T12:28:06;2.10;;;1.90;;
68050;SDS011;54839;51.364;7.246;2023-07-31T12:30:36;2.47;;;2.00;;
68050;SDS011;54839;51.364;7.246;2023-07-31T12:33:12;4.50;;;2.03;;
68050;SDS011;54839;51.364;7.246;2023-07-31T12:35:46;2.50;;;1.77;;
68050;SDS011;54839;51.364;7.246;2023-07-31T12:38:15;9.73;;;8.80;;
68050;SDS011;54839;51.364;7.246;2023-07-31T12:40:44;2.00;;;1.60;;
68050;SDS011;54839;51.364;7.246;2023-07-31T12:43:10;3.30;;;1.90;;
68050;SDS011;54839;51.364;7.246;2023-07-31T12:45:35;2.00;;;1.63;;
68050;SDS011;54839;51.364;7.246;2023-07-31T12:48:01;3.47;;;1.83;;
68050;SDS011;54839;51.364;7.246;2023-07-31T12:50:27;2.47;;;2.17;;
68050;SDS011;54839;51.364;7.246;2023-07-31T12:52:56;3.73;;;3.03;;
68050;SDS011;54839;51.364;7.246;2023-07-31T12:55:22;4.33;;;2.47;;
68050;SDS011;54839;51.364;7.246;2023-07-31T12:57:49;2.50;;;2.10;;
68050;SDS011;54839;51.364;7.246;2023-07-31T13:00:15;3.20;;;2.10;;
68050;SDS011;54839;51.364;7.246;2023-07-31T13:02:41;2.60;;;2.07;;
68050;SDS011;54839;51.364;7.246;2023-07-31T13:05:07;6.20;;;2.10;;
68050;SDS011;54839;51.364;7.246;2023-07-31T13:07:33;2.30;;;2.10;;
68050;SDS011;54839;51.364;7.246;2023-07-31T13:09:59;2.87;;;2.27;;
68050;SDS011;54839;51.364;7.246;2023-07-31T13:12:24;4.50;;;2.87;;
68050;SDS011;54839;51.364;7.246;2023-07-31T13:14:50;11.30;;;3.20;;
68050;SDS011;54839;51.364;7.246;2023-07-31T13:17:16;3.23;;;2.50;;
68050;SDS011;54839;51.364;7.246;2023-07-31T13:19:43;3.50;;;2.30;;
68050;SDS011;54839;51.364;7.246;2023-07-31T13:22:09;2.30;;;2.00;;
68050;SDS011;54839;51.364;7.246;2023-07-31T13:24:35;2.80;;;2.40;;
68050;SDS011;54839;51.364;7.246;2023-07-31T13:27:01;3.70;;;2.47;;
68050;SDS011;54839;51.364;7.246;2023-07-31T13:29:26;3.70;;;2.37;;
68050;SDS011;54839;51.364;7.246;2023-07-31T13:31:52;4.87;;;2.53;;
68050;SDS011;54839;51.364;7.246;2023-07-31T13:34:18;3.10;;;2.23;;
68050;SDS011;54839;51.364;7.246;2023-07-31T13:36:44;2.90;;;2.17;;
68050;SDS011;54839;51.364;7.246;2023-07-31T13:39:09;3.50;;;3.20;;
68050;SDS011;54839;51.364;7.246;2023-07-31T13:41:35;3.37;;;2.47;;
68050;SDS011;54839;51.364;7.246;2023-07-31T13:44:01;3.20;;;2.67;;
68050;SDS011;54839;51.364;7.246;2023-07-31T13:46:26;3.80;;;2.97;;
68050;SDS011;54839;51.364;7.246;2023-07-31T13:48:52;4.47;;;3.00;;
68050;SDS011;54839;51.364;7.246;2023-07-31T13:51:21;4.27;;;2.97;;
68050;SDS011;54839;51.364;7.246;2023-07-31T13:53:47;2.90;;;2.60;;
68050;SDS011;54839;51.364;7.246;2023-07-31T13:56:13;3.80;;;3.50;;
68050;SDS011;54839;51.364;7.246;2023-07-31T13:58:39;3.70;;;3.27;;
68050;SDS011;54839;51.364;7.246;2023-07-31T14:01:04;5.57;;;3.87;;
68050;SDS011;54839;51.364;7.246;2023-07-31T14:03:30;3.53;;;2.97;;
68050;SDS011;54839;51.364;7.246;2023-07-31T14:05:56;4.70;;;4.20;;
68050;SDS011;54839;51.364;7.246;2023-07-31T14:08:22;3.20;;;2.90;;
68050;SDS011;54839;51.364;7.246;2023-07-31T14:10:48;3.23;;;2.43;;
68050;SDS011;54839;51.364;7.246;2023-07-31T14:13:13;3.30;;;2.57;;
68050;SDS011;54839;51.364;7.246;2023-07-31T14:15:41;3.00;;;2.70;;
68050;SDS011;54839;51.364;7.246;2023-07-31T14:18:07;3.53;;;3.03;;
68050;SDS011;54839;51.364;7.246;2023-07-31T14:20:33;4.27;;;3.40;;
68050;SDS011;54839;51.364;7.246;2023-07-31T14:22:58;4.13;;;3.13;;
68050;SDS011;54839;51.364;7.246;2023-07-31T14:25:24;4.03;;;3.40;;
68050;SDS011;54839;51.364;7.246;2023-07-31T14:27:50;2.97;;;2.77;;
68050;SDS011;54839;51.364;7.246;2023-07-31T14:30:15;3.80;;;3.17;;
68050;SDS011;54839;51.364;7.246;2023-07-31T14:32:42;4.33;;;3.60;;
68050;SDS011;54839;51.364;7.246;2023-07-31T14:35:08;7.00;;;3.90;;
68050;SDS011;54839;51.364;7.246;2023-07-31T14:37:40;5.20;;;3.60;;
68050;SDS011;54839;51.364;7.246;2023-07-31T14:40:07;4.20;;;3.30;;
68050;SDS011;54839;51.364;7.246;2023-07-31T14:42:35;4.43;;;3.40;;
68050;SDS011;54839;51.364;7.246;2023-07-31T14:45:01;3.33;;;2.83;;
68050;SDS011;54839;51.364;7.246;2023-07-31T14:47:27;5.13;;;3.27;;
68050;SDS011;54839;51.364;7.246;2023-07-31T14:49:53;4.80;;;3.70;;
68050;SDS011;54839;51.364;7.246;2023-07-31T14:52:19;6.17;;;2.87;;
68050;SDS011;54839;51.364;7.246;2023-07-31T14:54:44;3.47;;;2.87;;
68050;SDS011;54839;51.364;7.246;2023-07-31T14:57:11;5.90;;;3.10;;
68050;SDS011;54839;51.364;7.246;2023-07-31T14:59:37;4.70;;;2.60;;